Time;durP1;ratioP1;P1;durP2;ratioP2;P2;SDS_P1;SDS_P2;PMS_P1;PMS_P2;Temp;Humidity;BMP_temperature;BMP_pressure;BME280_temperature;BME280_humidity;BME280_pressure;Samples;Min_cycle;Max_cycle;Signal;HPM_P1;HPM_P2
2023/08/19 00:00:58;;;;;;;5.15;2.33;;;22.70;99.90;;;22.67;66.21;100887.44;4914449;28;98433;-60
2023/08/19 00:03:24;;;;;;;4.00;2.90;;;22.70;99.90;;;22.64;66.41;100887.69;4915128;28;99669;-60
2023/08/19 00:05:50;;;;;;;3.42;2.67;;;22.70;99.90;;;22.65;66.40;100896.63;4912287;28;97581;-61
2023/08/19 00:08:15;;;;;;;4.35;2.83;;;22.70;99.90;;;22.65;66.29;100889.41;4900321;28;99832;-60
2023/08/19 00:10:42;;;;;;;3.67;3.00;;;22.70;99.90;;;22.64;66.26;100885.00;4916691;28;108452;-61
2023/08/19 00:13:07;;;;;;;4.25;2.63;;;22.70;99.90;;;22.65;66.27;100888.56;4900627;28;100415;-60
2023/08/19 00:15:34;;;;;;;5.75;2.33;;;22.70;99.90;;;22.64;66.27;100898.44;4917356;28;98794;-60
2023/08/19 00:18:01;;;;;;;4.75;2.80;;;22.70;99.90;;;22.64;66.42;100898.44;4919498;28;98722;-60
2023/08/19 00:20:30;;;;;;;7.88;2.58;;;22.70;99.90;;;22.62;66.34;100895.03;4900003;28;97633;-60
2023/08/19 00:22:56;;;;;;;4.03;2.50;;;22.70;99.90;;;22.62;66.46;100894.19;4918066;28;99189;-60
2023/08/19 00:25:24;;;;;;;2.65;2.10;;;22.70;99.90;;;22.60;66.48;100890.78;4913258;28;97726;-61
2023/08/19 00:27:51;;;;;;;2.42;2.00;;;22.60;99.90;;;22.56;66.52;100891.00;4919955;28;99906;-60
2023/08/19 00:30:17;;;;;;;2.35;2.15;;;22.60;99.90;;;22.53;66.66;100885.88;4897446;28;100447;-61
2023/08/19 00:32:43;;;;;;;3.55;2.55;;;22.60;99.90;;;22.52;66.56;100883.31;4918619;28;114939;-61
2023/08/19 00:35:09;;;;;;;2.83;2.30;;;22.60;99.90;;;22.52;66.80;100883.31;4920354;28;98509;-64
2023/08/19 00:37:36;;;;;;;3.42;2.45;;;22.60;99.90;;;22.51;66.91;100887.00;4917228;28;103187;-60
2023/08/19 00:40:06;;;;;;;7.10;2.67;;;22.60;99.90;;;22.53;66.71;100890.41;4904372;28;97849;-60
2023/08/19 00:42:32;;;;;;;6.82;2.70;;;22.60;99.90;;;22.56;66.69;100892.84;4918750;28;98936;-60
2023/08/19 00:44:58;;;;;;;4.25;2.30;;;22.60;99.90;;;22.61;66.38;100892.47;4920007;28;97430;-61
2023/08/19 00:47:25;;;;;;;6.18;2.80;;;22.60;99.90;;;22.63;66.42;100890.53;4921361;28;97538;-60
2023/08/19 00:49:51;;;;;;;3.03;2.45;;;22.70;99.90;;;22.65;66.29;100893.94;4916826;28;115567;-61
2023/08/19 00:52:19;;;;;;;4.05;2.70;;;22.70;99.90;;;22.67;66.38;100890.13;4917021;28;98539;-61
2023/08/19 00:54:45;;;;;;;3.72;2.65;;;22.70;99.90;;;22.68;66.23;100894.53;4918472;28;115755;-60
2023/08/19 00:57:12;;;;;;;3.15;2.47;;;22.70;99.90;;;22.67;66.23;100892.81;4918662;28;97730;-61
2023/08/19 00:59:38;;;;;;;6.73;2.47;;;22.70;99.90;;;22.68;66.27;100888.28;4902304;28;97940;-60
2023/08/19 01:02:04;;;;;;;5.13;2.88;;;22.70;99.90;;;22.71;66.13;100893.41;4920492;28;102109;-60
2023/08/19 01:04:30;;;;;;;2.83;2.40;;;22.70;99.90;;;22.69;66.01;100885.47;4919764;28;99223;-60
2023/08/19 01:07:31;;;;;;;2.90;2.17;;;22.70;99.90;;;22.68;66.23;100889.16;4920823;28;98374;-60
2023/08/19 01:10:09;;;;;;;4.15;2.22;;;22.70;99.90;;;22.62;66.20;100886.97;4917622;28;101834;-61
2023/08/19 01:13:11;;;;;;;2.58;2.20;;;22.70;99.90;;;22.60;66.34;100883.56;4922027;28;100640;-60
2023/08/19 01:15:50;;;;;;;3.38;2.20;;;22.60;99.90;;;22.57;66.46;100886.50;4889630;28;98836;-60
2023/08/19 01:18:17;;;;;;;3.05;2.40;;;22.60;99.90;;;22.54;66.59;100887.59;4914384;28;97866;-60
2023/08/19 01:20:44;;;;;;;2.47;1.98;;;22.60;99.90;;;22.52;66.57;100884.19;4921050;28;98097;-60
2023/08/19 01:23:17;;;;;;;3.03;2.30;;;22.60;99.90;;;22.54;66.58;100882.22;4924137;28;99667;-61
2023/08/19 01:25:43;;;;;;;7.05;2.95;;;22.60;99.90;;;22.53;66.71;100876.97;4898480;28;97331;-61
2023/08/19 01:28:10;;;;;;;2.83;2.47;;;22.50;99.90;;;22.53;66.57;100875.13;4893298;28;97560;-62
2023/08/19 01:30:36;;;;;;;2.60;2.20;;;22.60;99.90;;;22.53;66.49;100880.50;4914222;28;99298;-62
2023/08/19 01:33:03;;;;;;;1.88;1.70;;;22.60;99.90;;;22.51;66.71;100876.25;4915690;28;111477;-63
2023/08/19 01:35:55;;;;;;;2.05;1.70;;;22.60;99.90;;;22.50;66.89;100872.72;4900236;28;97567;-63
2023/08/19 01:38:34;;;;;;;2.00;1.80;;;22.60;99.90;;;22.48;66.96;100871.97;4893680;28;97712;-63
2023/08/19 01:41:03;;;;;;;3.00;2.33;;;22.50;99.90;;;22.49;66.79;100864.78;4899978;28;101748;-59
2023/08/19 01:43:31;;;;;;;2.63;2.20;;;22.50;99.90;;;22.49;66.78;100867.47;4916593;28;97913;-63
2023/08/19 01:45:57;;;;;;;2.67;2.00;;;22.50;99.90;;;22.49;66.78;100878.22;4913038;28;100607;-63
2023/08/19 01:48:23;;;;;;;4.55;2.55;;;22.50;99.90;;;22.52;66.73;100872.56;4903209;28;119541;-63
2023/08/19 01:50:49;;;;;;;2.67;2.20;;;22.60;99.90;;;22.55;66.73;100872.31;4915205;28;109409;-63
2023/08/19 01:53:14;;;;;;;2.25;2.03;;;22.60;99.90;;;22.53;66.77;100868.91;4917052;28;101014;-61
2023/08/19 01:55:40;;;;;;;2.65;2.00;;;22.60;99.90;;;22.52;66.61;100869.88;4916827;28;98912;-63
2023/08/19 01:58:06;;;;;;;3.75;2.72;;;22.60;99.90;;;22.55;66.71;100883.06;4917275;28;97290;-62
2023/08/19 02:00:32;;;;;;;3.25;2.20;;;22.60;99.90;;;22.56;66.71;100885.63;4917095;28;97505;-62
2023/08/19 02:02:58;;;;;;;3.65;2.30;;;22.60;99.90;;;22.59;66.62;100889.94;4923109;28;98632;-60
2023/08/19 02:05:25;;;;;;;3.10;2.25;;;22.60;99.90;;;22.61;66.48;100882.59;4916737;28;97425;-63
2023/08/19 02:07:51;;;;;;;2.78;2.50;;;22.60;99.90;;;22.64;66.53;100886.84;4918019;28;113296;-61
2023/08/19 02:10:17;;;;;;;6.60;2.30;;;22.70;99.90;;;22.65;66.56;100877.78;4922002;28;108244;-61
2023/08/19 02:12:42;;;;;;;3.60;2.72;;;22.70;99.90;;;22.67;66.42;100879.38;4904219;28;101168;-62
2023/08/19 02:15:09;;;;;;;3.88;2.40;;;22.70;99.90;;;22.75;72.70;100876.91;4918941;28;104698;-63
2023/08/19 02:17:34;;;;;;;3.65;2.88;;;22.70;99.90;;;22.77;71.94;100876.78;4917556;28;97291;-63
2023/08/19 02:20:00;;;;;;;3.70;2.28;;;22.80;99.90;;;22.78;71.50;100876.66;4927681;28;97493;-62
2023/08/19 02:22:26;;;;;;;3.33;2.40;;;22.80;99.90;;;22.79;69.56;100875.66;4946322;28;110366;-62
2023/08/19 02:24:52;;;;;;;3.58;2.50;;;22.80;99.90;;;22.77;67.09;100877.63;4946504;28;97301;-60
2023/08/19 02:27:17;;;;;;;2.92;2.58;;;22.80;99.90;;;22.76;68.49;100872.38;4939181;28;97470;-63
2023/08/19 02:29:43;;;;;;;2.67;2.40;;;22.70;99.90;;;22.75;66.90;100871.53;4952662;28;103487;-62
2023/08/19 02:32:09;;;;;;;5.35;2.83;;;22.70;99.90;;;22.72;66.59;100869.09;4946715;28;106748;-63
2023/08/19 02:34:35;;;;;;;4.68;2.38;;;22.70;99.90;;;22.71;66.45;100867.41;4945634;28;107311;-63
2023/08/19 02:37:00;;;;;;;6.43;2.85;;;22.70;99.90;;;22.72;66.53;100866.41;4940945;28;112101;-61
2023/08/19 02:39:26;;;;;;;4.00;3.17;;;22.70;99.90;;;22.72;67.51;100858.34;4944884;28;113827;-62
2023/08/19 02:41:52;;;;;;;2.70;2.40;;;22.70;99.90;;;22.71;66.48;100856.66;4945399;28;103422;-61
2023/08/19 02:44:17;;;;;;;3.63;2.63;;;22.70;99.90;;;22.69;66.39;100855.91;4952939;28;109761;-62
2023/08/19 02:46:43;;;;;;;3.47;2.15;;;22.70;99.90;;;22.67;66.32;100855.19;4944678;28;119401;-61
2023/08/19 02:49:09;;;;;;;2.42;2.15;;;22.70;99.90;;;22.61;66.43;100850.31;4946972;28;113745;-60
2023/08/19 02:51:34;;;;;;;2.13;1.92;;;22.60;99.90;;;22.59;66.53;100848.75;4947904;28;97230;-62
2023/08/19 02:54:00;;;;;;;3.08;2.28;;;22.60;99.90;;;22.61;66.47;100850.31;4947211;28;105747;-64
2023/08/19 02:56:26;;;;;;;1.90;1.77;;;22.60;99.90;;;22.62;66.34;100857.41;4941809;28;112849;-61
2023/08/19 02:58:52;;;;;;;2.40;2.03;;;22.60;99.90;;;22.60;66.38;100842.38;4944393;28;97970;-61
2023/08/19 03:01:18;;;;;;;2.88;2.22;;;22.60;99.90;;;22.60;66.22;100848.63;4948351;28;104184;-61
2023/08/19 03:03:44;;;;;;;2.85;1.95;;;22.60;99.90;;;22.58;66.26;100838.97;4927931;28;119800;-62
2023/08/19 03:06:10;;;;;;;3.03;2.50;;;22.60;99.90;;;22.58;66.35;100839.84;4944978;28;97439;-62
2023/08/19 03:08:36;;;;;;;2.30;1.88;;;22.60;99.90;;;22.55;66.52;100845.44;4937118;28;97042;-62
2023/08/19 03:11:02;;;;;;;2.47;2.10;;;22.60;99.90;;;22.54;66.55;100844.59;4944138;28;97712;-62
2023/08/19 03:13:28;;;;;;;5.15;2.20;;;22.60;99.90;;;22.55;66.46;100840.91;4943612;28;97555;-63
2023/08/19 03:15:59;;;;;;;3.63;2.38;;;22.60;99.90;;;22.58;66.53;100839.84;4927844;28;97424;-61
2023/08/19 03:18:26;;;;;;;2.42;2.22;;;22.60;99.90;;;22.58;66.47;100845.22;4946183;28;98099;-61
2023/08/19 03:20:57;;;;;;;2.75;1.90;;;22.60;99.90;;;22.59;66.46;100841.53;4947042;28;98099;-62
2023/08/19 03:23:27;;;;;;;3.40;2.00;;;22.60;99.90;;;22.55;66.51;100832.84;4928263;28;97222;-62
2023/08/19 03:25:55;;;;;;;3.10;1.48;;;22.60;99.90;;;22.48;66.76;100836.19;4939938;28;97359;-62
2023/08/19 03:28:22;;;;;;;2.72;2.28;;;22.60;99.90;;;22.50;67.21;100826.16;4945782;28;98089;-63
2023/08/19 03:30:48;;;;;;;2.83;2.00;;;22.50;99.90;;;22.51;66.72;100836.78;4951944;28;97725;-61
2023/08/19 03:33:13;;;;;;;3.38;2.20;;;22.60;99.90;;;22.54;66.61;100832.97;4949557;28;113951;-63
2023/08/19 03:35:39;;;;;;;3.08;1.85;;;22.60;99.90;;;22.56;66.43;100831.88;4945780;28;101953;-62
2023/08/19 03:38:05;;;;;;;2.30;2.10;;;22.60;99.90;;;22.51;66.48;100828.72;4950979;28;97353;-63
2023/08/19 03:40:31;;;;;;;2.25;1.80;;;22.60;99.90;;;22.49;66.84;100829.81;4944778;28;96959;-61
2023/08/19 03:42:57;;;;;;;2.90;2.03;;;22.60;99.90;;;22.47;66.82;100823.72;4944957;28;102472;-62
2023/08/19 03:45:22;;;;;;;2.47;2.17;;;22.50;99.90;;;22.41;66.99;100822.38;4951138;28;97047;-60
2023/08/19 03:47:48;;;;;;;3.08;1.80;;;22.50;99.90;;;22.43;67.00;100819.59;4947003;28;106227;-62
2023/08/19 03:50:14;;;;;;;2.13;1.60;;;22.50;99.90;;;22.43;67.05;100833.03;4944786;28;102115;-61
2023/08/19 03:52:40;;;;;;;4.35;2.10;;;22.50;99.90;;;22.46;66.91;100836.31;4941645;28;96818;-61
2023/08/19 03:55:07;;;;;;;2.17;1.88;;;22.50;99.90;;;22.52;66.75;100824.19;4945853;28;103609;-61
2023/08/19 03:57:33;;;;;;;2.57;1.97;;;22.60;99.90;;;22.51;66.71;100827.88;4940515;28;97632;-60
2023/08/19 03:59:58;;;;;;;2.67;1.70;;;22.60;99.90;;;22.52;66.67;100829.56;4942906;28;97594;-60
2023/08/19 04:02:24;;;;;;;7.38;2.08;;;22.60;99.90;;;22.63;69.63;100836.75;4943200;28;98400;-61
2023/08/19 04:05:04;;;;;;;3.40;1.98;;;22.60;99.90;;;22.69;68.33;100834.38;4946087;28;99740;-64
2023/08/19 04:07:30;;;;;;;5.40;2.35;;;22.70;99.90;;;22.68;66.33;100835.38;4921758;28;101678;-60
2023/08/19 04:09:57;;;;;;;3.70;1.95;;;22.70;99.90;;;22.67;66.46;100832.81;4947891;28;97276;-61
2023/08/19 04:12:26;;;;;;;2.42;1.52;;;22.70;99.90;;;22.67;66.81;100833.66;4937654;28;97461;-60
2023/08/19 04:14:53;;;;;;;4.78;2.13;;;22.70;99.90;;;22.71;69.10;100837.84;4942611;28;103815;-61
2023/08/19 04:17:19;;;;;;;2.92;1.70;;;22.70;99.90;;;22.75;67.39;100838.41;4952695;28;112111;-63
2023/08/19 04:19:47;;;;;;;3.22;2.10;;;22.80;99.90;;;22.75;67.05;100844.66;4943296;28;97153;-60
2023/08/19 04:22:15;;;;;;;2.72;1.70;;;22.70;99.90;;;22.76;67.03;100848.19;4914756;28;97891;-60
2023/08/19 04:24:42;;;;;;;2.92;2.03;;;22.80;99.90;;;22.73;66.21;100849.31;4952909;28;97590;-61
2023/08/19 04:27:08;;;;;;;2.73;2.03;;;22.70;99.90;;;22.73;66.20;100843.94;4937059;28;97467;-61
2023/08/19 04:29:34;;;;;;;2.25;1.75;;;22.70;99.90;;;22.75;66.44;100847.34;4925453;28;97437;-60
2023/08/19 04:32:01;;;;;;;2.17;1.98;;;22.70;99.90;;;22.75;65.92;100857.25;4942092;28;97384;-60
2023/08/19 04:34:27;;;;;;;1.90;1.70;;;22.70;99.90;;;22.73;65.98;100853.84;4944397;28;96928;-59
2023/08/19 04:36:53;;;;;;;2.63;1.92;;;22.70;99.90;;;22.72;65.92;100842.22;4946126;28;97311;-60
2023/08/19 04:39:20;;;;;;;4.00;2.22;;;22.70;99.90;;;22.72;65.89;100852.97;4938739;28;97605;-62
2023/08/19 04:41:46;;;;;;;1.90;1.63;;;22.70;99.90;;;22.73;66.14;100845.75;4953010;28;97479;-61
2023/08/19 04:44:12;;;;;;;3.22;1.75;;;22.70;99.90;;;22.73;66.67;100854.69;4943130;28;97012;-61
2023/08/19 04:46:38;;;;;;;2.75;1.73;;;22.70;99.90;;;22.74;66.60;100853.69;4943281;28;97957;-61
2023/08/19 04:49:05;;;;;;;1.73;1.50;;;22.70;99.90;;;22.73;65.99;100849.31;4946731;28;97261;-60
2023/08/19 04:51:32;;;;;;;5.15;2.25;;;22.70;99.90;;;22.76;68.33;100851.72;4951300;28;97202;-61
2023/08/19 04:53:58;;;;;;;3.13;1.98;;;22.70;99.90;;;22.74;65.94;100853.69;4936990;28;97486;-61
2023/08/19 04:56:24;;;;;;;3.97;2.03;;;22.70;99.90;;;22.76;67.72;100858.94;4941778;28;98850;-61
2023/08/19 04:58:50;;;;;;;3.33;2.35;;;22.70;99.90;;;22.77;68.46;100860.66;4955332;28;97595;-62
2023/08/19 05:01:16;;;;;;;3.33;2.25;;;22.80;99.90;;;22.77;67.17;100861.50;4948818;28;98070;-61
2023/08/19 05:03:41;;;;;;;3.38;2.10;;;22.80;99.90;;;22.76;66.43;100867.88;4947025;28;105342;-61
2023/08/19 05:06:07;;;;;;;2.88;1.88;;;22.80;99.90;;;22.74;66.15;100864.44;4944250;28;97366;-61
2023/08/19 05:08:33;;;;;;;3.33;2.22;;;22.80;99.90;;;22.73;65.84;100862.75;4945714;28;103008;-60
2023/08/19 05:10:59;;;;;;;3.85;2.17;;;22.70;99.90;;;22.72;65.94;100869.09;4927422;28;102330;-61
2023/08/19 05:13:25;;;;;;;2.70;2.00;;;22.70;99.90;;;22.68;65.82;100862.25;4921110;28;97523;-61
2023/08/19 05:15:50;;;;;;;3.13;2.63;;;22.70;99.90;;;22.69;65.82;100868.50;4951889;28;114030;-61
2023/08/19 05:18:16;;;;;;;1.70;1.48;;;22.70;99.90;;;22.67;65.98;100865.94;4950587;28;97588;-61
2023/08/19 05:20:42;;;;;;;2.33;2.10;;;22.70;99.90;;;22.72;67.02;100871.81;4930452;28;97224;-61
2023/08/19 05:23:08;;;;;;;4.00;2.25;;;22.70;99.90;;;22.73;66.22;100869.97;4949416;28;97237;-61
2023/08/19 05:25:33;;;;;;;5.03;2.30;;;22.70;99.90;;;22.73;65.91;100870.81;4948284;28;97123;-61
2023/08/19 05:27:59;;;;;;;2.70;2.30;;;22.80;99.90;;;22.72;65.87;100879.88;4945992;28;98550;-60
2023/08/19 05:30:25;;;;;;;3.15;2.05;;;22.70;99.90;;;22.70;65.87;100881.81;4944005;28;104153;-61
2023/08/19 05:32:51;;;;;;;2.28;1.88;;;22.70;99.90;;;22.65;65.97;100878.66;4937401;28;97606;-62
2023/08/19 05:35:17;;;;;;;2.90;1.60;;;22.70;99.90;;;22.60;66.15;100869.28;4943196;28;98029;-61
2023/08/19 05:37:43;;;;;;;2.03;1.70;;;22.70;99.90;;;22.57;66.19;100873.06;4948569;28;102538;-61
2023/08/19 05:40:09;;;;;;;2.03;1.80;;;22.60;99.90;;;22.60;66.16;100872.81;4946834;28;97660;-61
2023/08/19 05:42:34;;;;;;;2.17;1.52;;;22.60;99.90;;;22.54;66.19;100878.66;5055483;22;98637;-62
2023/08/19 05:45:00;;;;;;;3.00;1.70;;;22.60;99.90;;;22.50;66.61;100874.53;4943532;28;118413;-59
2023/08/19 05:47:26;;;;;;;1.55;1.45;;;22.60;99.90;;;22.53;66.39;100876.97;4943981;28;113910;-60
2023/08/19 05:49:52;;;;;;;1.90;1.60;;;22.60;99.90;;;22.54;66.50;100882.22;4951965;28;96847;-60
2023/08/19 05:52:18;;;;;;;2.28;1.83;;;22.60;99.90;;;22.58;66.79;100882.00;4947861;28;97239;-63
2023/08/19 05:54:44;;;;;;;1.60;1.33;;;22.60;99.90;;;22.54;66.22;100881.38;4947693;28;98663;-63
2023/08/19 05:57:09;;;;;;;2.05;1.70;;;22.60;99.90;;;22.58;66.33;100887.38;4933693;28;110565;-62
2023/08/19 05:59:35;;;;;;;4.03;1.90;;;22.60;99.90;;;22.61;66.58;100887.97;4946026;28;108546;-60
2023/08/19 06:02:01;;;;;;;2.38;1.88;;;22.60;99.90;;;22.63;66.10;100896.75;4935973;28;101846;-61
2023/08/19 06:04:27;;;;;;;3.95;1.80;;;22.70;99.90;;;22.60;66.18;100894.31;4944384;28;97463;-61
2023/08/19 06:06:53;;;;;;;2.00;1.42;;;22.70;99.90;;;22.52;66.45;100888.69;4947083;28;114202;-60
2023/08/19 06:09:19;;;;;;;1.83;1.60;;;22.60;99.90;;;22.50;66.37;100890.66;4936594;28;117741;-60
2023/08/19 06:11:52;;;;;;;2.33;1.83;;;22.60;99.90;;;22.52;66.74;100889.56;4945702;28;97570;-61
2023/08/19 06:14:19;;;;;;;2.53;1.50;;;22.60;99.90;;;22.50;66.53;100902.28;4945181;28;101674;-63
2023/08/19 06:16:46;;;;;;;3.65;1.88;;;22.60;99.90;;;22.62;66.92;100904.94;4945975;28;98216;-60
2023/08/19 06:19:12;;;;;;;2.17;1.70;;;22.70;99.90;;;22.60;66.32;100902.38;4943076;28;98405;-60
2023/08/19 06:21:39;;;;;;;2.45;1.70;;;22.70;99.90;;;22.65;66.22;100908.22;4950495;28;97279;-63
2023/08/19 06:24:05;;;;;;;4.90;1.48;;;22.70;99.90;;;22.64;66.38;100906.53;4924598;28;97002;-61
2023/08/19 06:26:31;;;;;;;1.83;1.70;;;22.70;99.90;;;22.62;66.24;100905.78;4927767;28;97498;-61
2023/08/19 06:28:57;;;;;;;4.45;1.95;;;22.70;99.90;;;22.61;66.54;100909.47;4949363;28;97488;-60
2023/08/19 06:31:23;;;;;;;2.40;2.05;;;22.70;99.90;;;22.57;66.42;100910.72;4942535;28;97206;-62
2023/08/19 06:33:54;;;;;;;3.33;1.55;;;22.70;99.90;;;22.63;66.14;100918.25;4953084;28;98767;-60
2023/08/19 06:36:28;;;;;;;1.58;1.48;;;22.70;99.90;;;22.51;66.77;100916.56;4946948;28;101116;-62
2023/08/19 06:39:20;;;;;;;1.73;1.42;;;22.60;99.90;;;22.47;66.76;100924.03;4944305;28;97382;-61
2023/08/19 06:41:56;;;;;;;1.50;1.33;;;22.60;99.90;;;22.44;66.73;100918.91;4928889;28;98240;-61
2023/08/19 06:44:22;;;;;;;2.00;1.60;;;22.60;99.90;;;22.44;67.62;100923.44;4929593;28;102035;-61
2023/08/19 06:46:49;;;;;;;2.03;1.33;;;22.50;99.90;;;22.41;67.12;100920.97;4939195;28;97472;-62
2023/08/19 06:49:15;;;;;;;2.20;1.67;;;22.50;99.90;;;22.46;67.19;100929.53;4949315;28;97138;-61
2023/08/19 06:51:42;;;;;;;2.28;1.42;;;22.60;99.90;;;22.44;67.13;100931.50;4932514;28;97012;-61
2023/08/19 06:54:09;;;;;;;2.08;1.60;;;22.50;99.90;;;22.36;67.47;100920.50;4954101;28;98363;-63
2023/08/19 06:56:46;;;;;;;6.07;1.77;;;22.50;99.90;;;22.37;67.13;100924.91;4943175;28;97153;-62
2023/08/19 06:59:20;;;;;;;2.08;1.73;;;22.50;99.90;;;22.39;67.46;100931.84;4946279;28;97260;-62
2023/08/19 07:02:01;;;;;;;2.40;1.70;;;22.50;99.90;;;22.38;67.51;100934.66;4928510;28;97055;-61
2023/08/19 07:04:27;;;;;;;3.03;1.85;;;22.50;99.90;;;22.33;67.67;100926.13;4950103;28;102104;-63
2023/08/19 07:06:59;;;;;;;1.63;1.45;;;22.50;99.90;;;22.35;67.20;100924.16;4947218;28;97705;-61
2023/08/19 07:09:26;;;;;;;2.17;1.80;;;22.50;99.90;;;22.43;70.39;100930.63;4948747;28;97151;-62
2023/08/19 07:11:57;;;;;;;2.08;1.67;;;22.50;99.90;;;22.42;67.49;100925.38;4949057;28;104155;-64
2023/08/19 07:14:25;;;;;;;1.60;1.50;;;22.50;99.90;;;22.42;69.65;100925.38;4934176;28;97508;-61
2023/08/19 07:16:55;;;;;;;2.00;1.55;;;22.50;99.90;;;22.34;65.59;100931.38;4952813;28;97607;-61
2023/08/19 07:19:27;;;;;;;2.33;1.55;;;22.50;99.90;;;22.37;67.23;100938.34;4949663;28;96770;-61
2023/08/19 07:21:55;;;;;;;2.33;1.63;;;22.50;99.90;;;22.44;67.76;100928.81;4946151;28;97608;-62
2023/08/19 07:24:22;;;;;;;1.88;1.42;;;22.60;99.90;;;22.45;67.55;100941.25;4954616;28;103525;-64
2023/08/19 07:26:48;;;;;;;1.77;1.50;;;22.50;99.90;;;22.42;67.45;100930.75;4954505;28;97601;-61
2023/08/19 07:29:15;;;;;;;2.05;1.55;;;22.60;99.90;;;22.47;67.52;100932.09;4948347;28;97023;-62
2023/08/19 07:31:42;;;;;;;3.17;2.47;;;22.60;99.90;;;22.49;67.48;100929.28;4950025;28;97376;-62
2023/08/19 07:34:08;;;;;;;4.93;1.83;;;22.60;99.90;;;22.52;67.47;100937.09;4952541;28;97937;-62
2023/08/19 07:36:34;;;;;;;2.25;2.05;;;22.60;99.90;;;22.65;67.70;100937.78;4944409;28;97451;-60
2023/08/19 07:39:00;;;;;;;3.90;2.33;;;22.70;99.90;;;22.69;67.49;100950.00;4946192;28;97276;-61
2023/08/19 07:41:26;;;;;;;2.75;1.95;;;22.80;99.90;;;22.73;66.82;100948.78;4944223;28;97530;-61
2023/08/19 07:43:52;;;;;;;4.10;1.90;;;22.80;99.90;;;22.80;66.57;100951.81;4929703;28;101441;-64
2023/08/19 07:46:18;;;;;;;3.83;2.08;;;22.90;99.90;;;22.83;66.92;100956.97;4948567;28;107273;-59
2023/08/19 07:48:47;;;;;;;4.22;1.80;;;22.90;99.90;;;22.93;66.40;100957.06;4944856;28;97486;-60
2023/08/19 07:51:13;;;;;;;2.33;1.67;;;23.00;99.90;;;22.81;66.38;100958.91;4943699;28;97039;-61
2023/08/19 07:53:39;;;;;;;3.50;2.03;;;22.90;99.90;;;22.76;66.18;100945.84;4949196;28;97149;-59
2023/08/19 07:56:06;;;;;;;1.95;1.40;;;22.90;99.90;;;22.85;67.65;100947.78;4943330;28;97546;-57
2023/08/19 07:58:33;;;;;;;1.98;1.50;;;22.90;99.90;;;22.69;66.83;100950.00;4937573;28;106304;-61
2023/08/19 08:00:59;;;;;;;1.40;1.27;;;22.90;99.90;;;22.71;66.33;100958.81;4923929;28;96877;-60
2023/08/19 08:03:25;;;;;;;1.60;1.33;;;22.80;99.90;;;22.64;67.02;100962.13;4950486;28;97501;-61
2023/08/19 08:05:50;;;;;;;2.65;1.42;;;22.80;99.90;;;22.67;68.65;100960.03;4950556;28;98385;-61
2023/08/19 08:08:16;;;;;;;5.13;2.28;;;22.80;99.90;;;22.67;66.20;100953.81;4946884;28;109570;-60
2023/08/19 08:10:42;;;;;;;2.05;1.85;;;22.80;99.90;;;22.56;66.26;100960.03;4948062;28;99659;-60
2023/08/19 08:13:08;;;;;;;4.22;1.80;;;22.70;99.90;;;22.50;65.66;100955.19;4930647;28;97432;-61
2023/08/19 08:15:34;;;;;;;1.77;1.40;;;22.70;99.90;;;22.49;67.52;100951.63;4942673;28;97244;-61
2023/08/19 08:18:00;;;;;;;2.63;1.90;;;22.60;99.90;;;22.55;67.15;100947.59;4943924;28;122095;-61
2023/08/19 08:20:26;;;;;;;3.75;1.65;;;22.70;99.90;;;22.62;69.93;100942.56;4945893;28;97343;-61
2023/08/19 08:22:51;;;;;;;2.78;2.00;;;22.70;99.90;;;22.65;67.43;100948.56;4945924;28;97323;-61
2023/08/19 08:25:17;;;;;;;2.08;1.65;;;22.80;99.90;;;22.72;67.46;100955.16;4931661;28;108739;-58
2023/08/19 08:27:43;;;;;;;1.98;1.60;;;22.80;99.90;;;22.63;67.73;100945.13;4946694;28;97773;-60
2023/08/19 08:30:09;;;;;;;2.22;1.75;;;22.80;99.90;;;22.56;67.55;100943.91;4946600;28;97508;-60
2023/08/19 08:32:35;;;;;;;2.85;1.77;;;22.70;99.90;;;22.52;67.57;100937.09;4948546;28;100012;-60
2023/08/19 08:35:01;;;;;;;2.92;2.05;;;22.70;99.90;;;22.53;67.82;100947.72;4945776;28;97197;-61
2023/08/19 08:37:26;;;;;;;1.77;1.45;;;22.70;99.90;;;22.53;68.02;100941.47;4946458;28;97430;-61
2023/08/19 08:39:52;;;;;;;1.65;1.55;;;22.70;99.90;;;22.57;69.16;100945.66;4934960;28;105164;-61
2023/08/19 08:42:18;;;;;;;2.30;1.33;;;22.70;99.90;;;22.52;68.11;100959.44;4950513;28;100120;-60
2023/08/19 08:44:47;;;;;;;2.25;1.70;;;22.70;99.90;;;22.59;68.89;100965.19;4933241;28;98431;-60
2023/08/19 08:47:14;;;;;;;2.78;1.50;;;22.70;99.90;;;22.71;67.32;100969.59;4953341;28;97008;-61
2023/08/19 08:49:41;;;;;;;5.13;1.98;;;22.80;99.90;;;22.73;71.65;100973.00;4950219;28;96933;-60
2023/08/19 08:52:08;;;;;;;3.38;1.85;;;22.80;99.90;;;22.83;70.46;100973.97;4946561;28;97822;-61
2023/08/19 08:54:34;;;;;;;4.20;2.05;;;22.90;99.90;;;22.94;66.58;100980.31;4948144;28;108793;-61
2023/08/19 08:57:02;;;;;;;2.17;1.83;;;23.10;99.90;;;22.89;69.15;100978.00;4927034;28;97458;-60
2023/08/19 08:59:28;;;;;;;5.05;2.13;;;23.00;99.90;;;23.07;68.10;100992.63;4947071;28;97433;-61
2023/08/19 09:01:56;;;;;;;2.72;1.92;;;23.20;99.90;;;23.24;66.88;100999.28;4938197;28;97744;-62
2023/08/19 09:04:23;;;;;;;3.42;1.65;;;23.40;99.90;;;23.15;65.83;101002.75;4947880;28;98926;-61
2023/08/19 09:06:57;;;;;;;1.92;1.70;;;23.40;99.90;;;23.15;68.84;101010.81;4946211;28;97704;-61
2023/08/19 09:09:24;;;;;;;2.85;1.95;;;23.30;99.90;;;23.21;66.14;101010.31;4927546;28;98173;-64
2023/08/19 09:11:52;;;;;;;1.83;1.73;;;23.40;99.90;;;23.09;65.56;101011.31;4934942;28;97689;-61
2023/08/19 09:14:33;;;;;;;2.85;1.77;;;23.30;99.90;;;23.00;65.78;101012.94;4948176;28;129024;-60
2023/08/19 09:16:59;;;;;;;2.63;1.88;;;23.20;99.90;;;22.87;65.07;101011.38;4956462;28;97611;-60
2023/08/19 09:19:25;;;;;;;3.15;2.10;;;23.00;99.90;;;23.01;67.37;101011.97;4937694;28;117026;-61
2023/08/19 09:21:50;;;;;;;3.15;2.17;;;23.10;99.90;;;22.98;65.22;101019.41;4950688;28;116090;-61
2023/08/19 09:24:17;;;;;;;3.45;1.80;;;23.10;99.90;;;23.08;66.52;101015.00;4922337;28;97614;-61
2023/08/19 09:26:44;;;;;;;2.25;1.95;;;23.20;99.90;;;22.93;64.10;101013.56;4902344;28;97539;-60
2023/08/19 09:29:11;;;;;;;3.35;2.42;;;23.10;99.90;;;22.96;70.61;101022.22;4905321;28;97424;-60
2023/08/19 09:31:40;;;;;;;4.80;2.35;;;23.10;99.90;;;23.06;68.52;101027.72;4920777;28;98738;-60
2023/08/19 09:34:06;;;;;;;2.25;2.03;;;23.10;99.90;;;23.00;65.41;101022.81;4897571;28;97646;-60
2023/08/19 09:36:32;;;;;;;3.13;2.13;;;23.20;99.90;;;23.16;67.49;101028.69;4921349;28;97519;-61
2023/08/19 09:38:58;;;;;;;2.78;2.10;;;23.30;99.90;;;23.08;66.00;101036.50;4922621;28;106474;-61
2023/08/19 09:41:30;;;;;;;2.30;1.77;;;23.30;99.90;;;22.99;66.03;101026.50;4923238;28;103543;-61
2023/08/19 09:43:59;;;;;;;3.50;2.03;;;23.20;99.90;;;23.04;68.77;101027.00;4908552;28;98361;-61
2023/08/19 09:46:34;;;;;;;3.38;2.10;;;23.10;99.90;;;23.01;64.33;101019.19;4908958;28;97472;-61
2023/08/19 09:49:00;;;;;;;4.00;2.20;;;23.20;99.90;;;23.01;67.25;101020.03;4926110;28;97515;-61
2023/08/19 09:51:30;;;;;;;3.20;2.13;;;23.20;99.90;;;23.13;66.31;101018.16;4905023;28;100576;-61
2023/08/19 09:53:56;;;;;;;5.03;2.13;;;23.30;99.90;;;23.29;68.34;101024.00;4918797;28;97461;-60
2023/08/19 09:56:26;;;;;;;3.50;1.80;;;23.40;99.90;;;23.41;69.67;101028.31;4926900;28;97365;-61
2023/08/19 09:58:56;;;;;;;3.10;2.30;;;23.50;99.90;;;23.80;72.37;101039.44;4927541;28;97882;-61
2023/08/19 10:01:25;;;;;;;3.22;1.98;;;23.90;99.90;;;23.90;68.32;101048.47;4923744;28;102528;-63
2023/08/19 10:03:51;;;;;;;2.75;2.20;;;24.10;99.90;;;24.00;71.84;101057.44;4901119;28;101930;-62
2023/08/19 10:06:31;;;;;;;4.85;2.40;;;24.20;99.90;;;23.87;64.82;101050.53;4917482;28;97564;-63
2023/08/19 10:09:05;;;;;;;3.58;1.70;;;24.10;99.90;;;23.65;64.58;101051.53;4899246;28;97233;-60
2023/08/19 10:11:31;;;;;;;3.13;2.08;;;23.90;99.90;;;23.38;63.35;101055.50;4908409;28;98546;-64